createdAt,value
2019-04-14T00:01:13.012Z,99.90
2019-04-14T00:03:50.077Z,99.90
2019-04-14T00:06:18.316Z,99.90
2019-04-14T00:08:46.388Z,99.90
2019-04-14T00:11:14.737Z,99.90
2019-04-14T00:13:42.008Z,99.90
2019-04-14T00:16:09.580Z,99.90
2019-04-14T00:18:38.247Z,99.90
2019-04-14T00:21:06.497Z,99.90
2019-04-14T00:23:34.775Z,99.90
2019-04-14T00:26:24.874Z,99.90
2019-04-14T00:28:53.381Z,99.90
2019-04-14T00:31:21.672Z,99.90
2019-04-14T00:33:49.976Z,99.90
2019-04-14T00:36:35.565Z,99.90
2019-04-14T00:39:13.925Z,99.90
2019-04-14T00:41:52.479Z,99.90
2019-04-14T00:44:35.020Z,99.90
2019-04-14T00:47:09.975Z,99.90
2019-04-14T00:49:37.628Z,99.90
2019-04-14T00:52:05.744Z,99.90
2019-04-14T00:54:34.429Z,99.90
2019-04-14T00:57:03.152Z,99.90
2019-04-14T00:59:31.207Z,99.90
2019-04-14T01:01:59.232Z,99.90
2019-04-14T01:04:27.285Z,99.90
2019-04-14T01:06:55.476Z,99.90
2019-04-14T01:09:23.987Z,99.90
2019-04-14T01:11:51.619Z,99.90
2019-04-14T01:14:19.328Z,99.90
2019-04-14T01:16:47.369Z,99.90
2019-04-14T01:19:15.544Z,99.90
2019-04-14T01:21:43.590Z,99.90
2019-04-14T01:24:12.065Z,99.90
2019-04-14T01:26:39.980Z,99.90
2019-04-14T01:29:08.026Z,99.90
2019-04-14T01:31:35.996Z,99.90
2019-04-14T01:34:04.128Z,99.90
2019-04-14T01:36:32.033Z,99.90
2019-04-14T01:39:00.352Z,99.90
2019-04-14T01:41:28.246Z,99.90
2019-04-14T01:43:56.115Z,99.90
2019-04-14T01:46:28.067Z,99.90
2019-04-14T01:48:54.067Z,99.90
2019-04-14T01:51:46.752Z,99.90
2019-04-14T01:54:34.552Z,99.90
2019-04-14T01:57:18.347Z,99.90
2019-04-14T01:59:45.993Z,99.90
2019-04-14T02:02:16.316Z,99.90
2019-04-14T02:04:44.322Z,99.90
2019-04-14T02:07:12.344Z,99.90
2019-04-14T02:09:40.112Z,99.90
2019-04-14T02:12:08.444Z,99.90
2019-04-14T02:14:36.510Z,99.90
2019-04-14T02:17:05.782Z,99.90
2019-04-14T02:19:33.245Z,99.90
2019-04-14T02:22:00.705Z,99.90
2019-04-14T02:24:28.869Z,99.90
2019-04-14T02:26:56.981Z,99.90
2019-04-14T02:29:25.510Z,99.90
2019-04-14T02:33:17.241Z,99.90
2019-04-14T02:34:47.997Z,99.90
2019-04-14T02:42:34.258Z,99.90
2019-04-14T02:44:45.600Z,99.90
2019-04-14T02:47:39.370Z,99.90
2019-04-14T02:49:52.446Z,99.90
2019-04-14T02:52:20.459Z,99.90
2019-04-14T02:54:52.228Z,99.90
2019-04-14T02:57:17.261Z,99.90
2019-04-14T02:59:43.238Z,99.90
2019-04-14T03:02:27.467Z,99.90
2019-04-14T03:04:47.279Z,99.90
2019-04-14T03:07:14.415Z,99.90
2019-04-14T03:12:09.372Z,99.90
2019-04-14T03:14:45.488Z,99.90
2019-04-14T03:17:21.164Z,99.90
2019-04-14T03:20:22.810Z,99.90
2019-04-14T03:22:44.277Z,99.90
2019-04-14T03:25:13.117Z,99.90
2019-04-14T03:27:54.623Z,99.90
2019-04-14T03:30:58.757Z,99.90
2019-04-14T03:40:44.743Z,99.90
2019-04-14T03:43:16.738Z,99.90
2019-04-14T03:45:48.465Z,99.90
2019-04-14T03:48:34.390Z,99.90
2019-04-14T03:53:05.897Z,99.90
2019-04-14T03:55:20.482Z,99.90
2019-04-14T03:57:36.612Z,99.90
2019-04-14T04:00:05.221Z,99.90
2019-04-14T04:02:33.616Z,99.90
2019-04-14T04:05:02.106Z,99.90
2019-04-14T04:07:30.065Z,99.90
2019-04-14T04:10:03.005Z,99.90
2019-04-14T04:12:31.334Z,99.90
2019-04-14T04:14:59.703Z,99.90
2019-04-14T04:17:38.718Z,99.90
2019-04-14T04:20:34.986Z,99.90
2019-04-14T04:23:38.159Z,99.90
2019-04-14T04:26:30.860Z,99.90
2019-04-14T04:29:04.861Z,99.90
2019-04-14T04:31:50.514Z,99.90
2019-04-14T04:34:40.527Z,99.90
2019-04-14T04:37:17.098Z,99.90
2019-04-14T04:39:45.502Z,99.90
2019-04-14T04:42:13.355Z,99.90
2019-04-14T04:44:42.046Z,99.90
2019-04-14T04:47:09.914Z,99.90
2019-04-14T04:49:38.235Z,99.90
2019-04-14T04:52:06.341Z,99.90
2019-04-14T04:54:34.233Z,99.90
2019-04-14T04:57:02.468Z,99.90
2019-04-14T04:59:30.057Z,99.90
2019-04-14T05:01:58.089Z,99.90
2019-04-14T05:04:26.598Z,99.90
2019-04-14T05:06:59.772Z,99.90
2019-04-14T05:09:47.420Z,99.90
2019-04-14T05:12:24.080Z,99.90
2019-04-14T05:15:01.000Z,99.90
2019-04-14T05:17:29.806Z,99.90
2019-04-14T05:19:58.434Z,99.90
2019-04-14T05:22:26.750Z,99.90
2019-04-14T05:24:55.018Z,99.90
2019-04-14T05:27:23.254Z,99.90
2019-04-14T05:29:51.574Z,99.90
2019-04-14T05:32:19.458Z,99.90
2019-04-14T05:34:47.941Z,99.90
2019-04-14T05:37:16.094Z,99.90
2019-04-14T05:39:44.070Z,99.90
2019-04-14T05:42:17.778Z,99.90
2019-04-14T05:44:42.536Z,99.90
2019-04-14T05:47:11.131Z,99.90
2019-04-14T05:49:44.908Z,99.90
2019-04-14T05:52:08.003Z,99.90
2019-04-14T05:54:36.114Z,99.90
2019-04-14T05:57:04.437Z,99.90
2019-04-14T05:59:32.929Z,99.90
2019-04-14T06:02:01.059Z,99.90
2019-04-14T06:04:28.702Z,99.90
2019-04-14T06:06:56.600Z,99.90
2019-04-14T06:09:23.808Z,99.90
2019-04-14T06:11:51.218Z,99.90
2019-04-14T06:14:18.658Z,99.90
2019-04-14T06:16:45.840Z,99.90
2019-04-14T06:19:13.278Z,99.90
2019-04-14T06:21:41.338Z,99.90
2019-04-14T06:24:08.695Z,99.90
2019-04-14T06:26:35.909Z,99.90
2019-04-14T06:29:03.663Z,99.90
2019-04-14T06:31:49.770Z,99.90
2019-04-14T06:34:51.358Z,99.90
2019-04-14T06:37:34.554Z,99.90
2019-04-14T06:40:03.974Z,99.90
2019-04-14T06:42:31.527Z,99.90
2019-04-14T06:44:58.985Z,99.90
2019-04-14T06:47:26.427Z,99.90
2019-04-14T06:49:53.890Z,99.90
2019-04-14T06:52:21.537Z,99.90
2019-04-14T06:54:48.988Z,99.90
2019-04-14T06:57:17.223Z,99.90
2019-04-14T06:59:44.590Z,99.90
2019-04-14T07:02:12.035Z,99.90
2019-04-14T07:04:39.558Z,99.90
2019-04-14T07:07:07.158Z,99.90
2019-04-14T07:09:34.607Z,99.90
2019-04-14T07:12:02.181Z,99.90
2019-04-14T07:14:32.025Z,99.90
2019-04-14T07:16:59.479Z,99.90
2019-04-14T07:19:26.710Z,99.90
2019-04-14T07:21:54.127Z,99.90
2019-04-14T07:24:21.867Z,99.90
2019-04-14T07:26:49.598Z,99.90
2019-04-14T07:29:17.013Z,99.90
2019-04-14T07:32:12.941Z,99.90
2019-04-14T07:35:00.028Z,99.90
2019-04-14T07:37:55.887Z,99.90
2019-04-14T07:40:54.915Z,99.90
2019-04-14T07:43:31.746Z,99.90
2019-04-14T07:46:36.367Z,99.90
2019-04-14T07:49:35.240Z,99.90
2019-04-14T07:52:19.410Z,99.90
2019-04-14T07:54:59.266Z,99.90
2019-04-14T07:57:38.779Z,99.90
2019-04-14T08:00:10.475Z,99.90
2019-04-14T08:03:12.245Z,99.90
2019-04-14T08:05:40.160Z,99.90
2019-04-14T08:08:07.590Z,99.90
2019-04-14T08:10:35.291Z,99.90
2019-04-14T08:13:02.510Z,99.90
2019-04-14T08:15:30.206Z,99.90
2019-04-14T08:17:57.391Z,99.90
2019-04-14T08:20:27.777Z,99.90
2019-04-14T08:22:53.651Z,99.90
2019-04-14T08:25:20.825Z,99.90
2019-04-14T08:27:48.329Z,99.90
2019-04-14T08:30:15.623Z,99.90
2019-04-14T08:32:43.071Z,99.90
2019-04-14T08:35:10.481Z,99.90
2019-04-14T08:37:38.052Z,99.90
2019-04-14T08:40:05.350Z,99.90
2019-04-14T08:42:50.892Z,99.90
2019-04-14T08:45:27.940Z,99.90
2019-04-14T08:48:11.648Z,99.90
2019-04-14T08:50:49.774Z,99.90
2019-04-14T08:53:26.674Z,99.90
2019-04-14T08:56:12.618Z,99.90
2019-04-14T08:58:45.727Z,99.90
2019-04-14T09:01:21.705Z,99.90
2019-04-14T09:04:11.619Z,99.90
2019-04-14T09:06:44.443Z,99.90
2019-04-14T09:09:34.057Z,99.90
2019-04-14T09:12:15.817Z,99.90
2019-04-14T09:14:39.890Z,99.90
2019-04-14T09:17:07.358Z,99.90
2019-04-14T09:19:34.940Z,99.90
2019-04-14T09:22:05.508Z,99.90
2019-04-14T09:24:33.473Z,99.90
2019-04-14T09:27:01.174Z,99.90
2019-04-14T09:29:28.607Z,99.90
2019-04-14T09:31:56.710Z,99.90
2019-04-14T09:34:24.567Z,99.90
2019-04-14T09:36:51.729Z,99.90
2019-04-14T09:39:19.275Z,99.90
2019-04-14T09:41:46.536Z,99.90
2019-04-14T09:44:14.209Z,99.90
2019-04-14T09:46:41.826Z,99.90
2019-04-14T09:49:09.717Z,99.90
2019-04-14T09:51:37.429Z,99.90
2019-04-14T09:54:05.312Z,99.20
2019-04-14T09:56:43.337Z,99.90
2019-04-14T09:59:10.843Z,99.70
2019-04-14T10:01:38.647Z,98.70
2019-04-14T10:04:06.399Z,94.00
2019-04-14T10:06:34.043Z,95.00
2019-04-14T10:09:02.807Z,95.40
2019-04-14T10:11:47.972Z,91.80
2019-04-14T10:14:07.964Z,95.00
2019-04-14T10:16:35.722Z,87.90
2019-04-14T10:19:06.424Z,92.00
2019-04-14T10:21:34.067Z,92.20
2019-04-14T10:24:01.790Z,92.30
2019-04-14T10:26:29.467Z,90.20
2019-04-14T10:28:58.366Z,89.10
2019-04-14T10:31:26.658Z,90.70
2019-04-14T10:33:54.486Z,89.10
2019-04-14T10:36:22.399Z,74.40
2019-04-14T10:38:52.030Z,78.40
2019-04-14T10:41:19.675Z,75.30
2019-04-14T10:43:46.978Z,76.30
2019-04-14T10:46:14.235Z,83.90
2019-04-14T10:48:41.972Z,73.70
2019-04-14T10:51:09.729Z,69.60
2019-04-14T10:53:37.063Z,78.90
2019-04-14T10:56:04.475Z,66.00
2019-04-14T10:58:32.666Z,74.10
2019-04-14T11:01:00.044Z,70.50
2019-04-14T11:03:30.560Z,71.30
2019-04-14T11:06:11.033Z,73.20
2019-04-14T11:08:38.752Z,71.20
2019-04-14T11:11:06.582Z,64.90
2019-04-14T11:13:34.375Z,63.80
2019-04-14T11:16:01.742Z,67.10
2019-04-14T11:18:29.402Z,68.70
2019-04-14T11:20:57.323Z,68.50
2019-04-14T11:23:24.566Z,67.30
2019-04-14T11:25:57.990Z,69.20
2019-04-14T11:28:27.774Z,66.90
2019-04-14T11:30:55.183Z,69.30
2019-04-14T11:33:33.350Z,65.10
2019-04-14T11:36:27.145Z,67.00
2019-04-14T11:38:59.146Z,68.30
2019-04-14T11:41:26.989Z,69.00
2019-04-14T11:43:54.409Z,68.60
2019-04-14T11:46:22.006Z,69.30
2019-04-14T11:48:49.491Z,70.10
2019-04-14T11:51:16.820Z,73.20
2019-04-14T11:53:44.509Z,67.00
2019-04-14T11:56:12.828Z,69.00
2019-04-14T11:58:41.091Z,63.30
2019-04-14T12:01:28.618Z,64.50
2019-04-14T12:04:13.920Z,71.50
2019-04-14T12:06:55.313Z,66.30
2019-04-14T12:09:26.506Z,63.30
2019-04-14T12:11:54.263Z,59.50
2019-04-14T12:14:21.486Z,61.50
2019-04-14T12:16:49.510Z,66.60
2019-04-14T12:19:17.410Z,63.50
2019-04-14T12:21:45.026Z,69.40
2019-04-14T12:24:12.738Z,66.60
2019-04-14T12:26:42.875Z,65.40
2019-04-14T12:29:11.701Z,63.60
2019-04-14T12:31:39.662Z,70.10
2019-04-14T12:34:07.147Z,59.00
2019-04-14T12:36:34.890Z,60.50
2019-04-14T12:39:04.064Z,59.00
2019-04-14T12:41:40.158Z,57.80
2019-04-14T12:44:26.335Z,52.50
2019-04-14T12:47:25.430Z,54.50
2019-04-14T12:49:53.673Z,56.50
2019-04-14T12:52:22.747Z,58.20
2019-04-14T12:54:50.167Z,59.90
2019-04-14T12:57:24.434Z,58.20
2019-04-14T12:59:52.409Z,53.10
2019-04-14T13:02:26.893Z,54.40
2019-04-14T13:04:55.492Z,55.10
2019-04-14T13:07:22.793Z,55.40
2019-04-14T13:09:50.247Z,53.70
2019-04-14T13:12:17.442Z,55.90
2019-04-14T13:14:44.921Z,51.80
2019-04-14T13:17:12.078Z,51.00
2019-04-14T13:19:39.549Z,53.60
2019-04-14T13:22:07.062Z,54.80
2019-04-14T13:24:34.259Z,52.40
2019-04-14T13:27:01.969Z,51.50
2019-04-14T13:29:29.182Z,54.10
2019-04-14T13:31:56.689Z,53.60
2019-04-14T13:34:23.915Z,52.90
2019-04-14T13:36:51.379Z,55.20
2019-04-14T13:39:18.845Z,51.10
2019-04-14T13:41:46.515Z,54.10
2019-04-14T13:44:14.511Z,49.80
2019-04-14T13:46:41.694Z,50.50
2019-04-14T13:49:08.892Z,52.30
2019-04-14T13:51:36.558Z,50.80
2019-04-14T13:54:03.754Z,48.90
2019-04-14T13:56:31.063Z,51.10
2019-04-14T13:58:58.511Z,49.20
2019-04-14T14:01:25.970Z,49.80
2019-04-14T14:03:53.178Z,49.40
2019-04-14T14:06:21.172Z,47.00
2019-04-14T14:08:48.352Z,49.50
2019-04-14T14:11:32.430Z,45.90
2019-04-14T14:14:05.514Z,47.20
2019-04-14T14:16:48.231Z,48.00
2019-04-14T14:19:25.607Z,46.90
2019-04-14T14:22:02.303Z,49.70
2019-04-14T14:24:36.442Z,47.40
2019-04-14T14:27:03.842Z,48.10
2019-04-14T14:29:31.580Z,47.90
2019-04-14T14:32:00.761Z,47.80
2019-04-14T14:34:27.976Z,48.40
2019-04-14T14:36:55.402Z,52.40
2019-04-14T14:39:22.560Z,52.50
2019-04-14T14:41:50.023Z,50.40
2019-04-14T14:44:17.367Z,50.40
2019-04-14T14:47:03.031Z,49.80
2019-04-14T14:49:40.387Z,48.90
2019-04-14T14:52:09.775Z,49.20
2019-04-14T14:54:37.150Z,50.20
2019-04-14T14:57:04.404Z,49.20
2019-04-14T14:59:31.595Z,49.30
2019-04-14T15:01:58.907Z,49.40
2019-04-14T15:04:26.066Z,48.90
2019-04-14T15:06:53.363Z,49.50
2019-04-14T15:09:20.871Z,53.00
2019-04-14T15:11:48.611Z,56.00
2019-04-14T15:14:16.077Z,52.30
2019-04-14T15:16:43.503Z,53.90
2019-04-14T15:19:11.023Z,50.70
2019-04-14T15:21:38.183Z,50.80
2019-04-14T15:24:06.033Z,51.60
2019-04-14T15:26:33.443Z,54.50
2019-04-14T15:29:00.851Z,54.20
2019-04-14T15:31:28.310Z,54.80
2019-04-14T15:33:55.864Z,53.80
2019-04-14T15:36:23.148Z,55.20
2019-04-14T15:38:50.357Z,51.10
2019-04-14T15:41:17.561Z,51.00
2019-04-14T15:43:45.394Z,49.00
2019-04-14T15:46:12.919Z,48.50
2019-04-14T15:48:40.663Z,50.00
2019-04-14T15:51:08.247Z,50.10
2019-04-14T15:53:38.083Z,53.10
2019-04-14T15:56:06.015Z,54.20
2019-04-14T15:58:55.470Z,54.80
2019-04-14T16:01:32.455Z,56.30
2019-04-14T16:04:04.506Z,57.30
2019-04-14T16:06:49.991Z,55.10
2019-04-14T16:09:29.602Z,56.70
2019-04-14T16:12:16.692Z,58.80
2019-04-14T16:15:03.587Z,55.60
2019-04-14T16:17:41.172Z,56.50
2019-04-14T16:20:17.448Z,53.80
2019-04-14T16:22:44.657Z,55.00
2019-04-14T16:25:11.826Z,56.50
2019-04-14T16:28:07.720Z,56.40
2019-04-14T16:31:12.663Z,56.50
2019-04-14T16:33:57.967Z,56.30
2019-04-14T16:36:25.423Z,54.60
2019-04-14T16:38:52.906Z,53.70
2019-04-14T16:41:20.371Z,55.20
2019-04-14T16:43:48.067Z,54.20
2019-04-14T16:46:15.824Z,55.20
2019-04-14T16:48:43.319Z,55.40
2019-04-14T16:51:15.002Z,58.10
2019-04-14T16:53:43.570Z,58.70
2019-04-14T16:56:33.515Z,60.30
2019-04-14T16:59:04.070Z,58.60
2019-04-14T17:01:34.320Z,59.90
2019-04-14T17:04:01.939Z,59.40
2019-04-14T17:06:29.375Z,60.00
2019-04-14T17:08:56.990Z,61.50
2019-04-14T17:11:24.189Z,62.90
2019-04-14T17:13:57.954Z,64.00
2019-04-14T17:16:53.716Z,65.20
2019-04-14T17:19:36.933Z,68.20
2019-04-14T17:22:13.691Z,71.10
2019-04-14T17:25:18.702Z,72.50
2019-04-14T17:27:52.939Z,74.20
2019-04-14T17:30:30.930Z,75.20
2019-04-14T17:33:16.186Z,76.20
2019-04-14T17:36:03.601Z,79.70
2019-04-14T17:38:37.599Z,77.60
2019-04-14T17:41:15.371Z,77.80
2019-04-14T17:43:57.688Z,76.80
2019-04-14T17:46:35.634Z,77.90
2019-04-14T17:49:18.690Z,75.80
2019-04-14T17:52:11.315Z,78.00
2019-04-14T17:55:00.970Z,80.30
2019-04-14T17:58:02.908Z,84.30
2019-04-14T18:00:42.625Z,84.70
2019-04-14T18:03:41.316Z,85.60
2019-04-14T18:06:28.126Z,86.90
2019-04-14T18:09:20.521Z,87.50
2019-04-14T18:11:58.076Z,90.40
2019-04-14T18:14:45.009Z,90.40
2019-04-14T18:17:23.735Z,91.20
2019-04-14T18:19:57.847Z,91.60
2019-04-14T18:22:25.345Z,91.40
2019-04-14T18:24:53.618Z,91.30
2019-04-14T18:27:20.824Z,92.20
2019-04-14T18:30:02.167Z,91.40
2019-04-14T18:32:33.687Z,91.30
2019-04-14T18:35:39.156Z,91.90
2019-04-14T18:38:25.893Z,92.20
2019-04-14T18:41:13.022Z,92.90
2019-04-14T18:43:48.396Z,93.20
2019-04-14T18:46:35.488Z,93.70
2019-04-14T18:49:08.739Z,94.20
2019-04-14T18:52:01.915Z,94.20
2019-04-14T18:54:54.656Z,94.40
2019-04-14T18:57:25.601Z,94.80
2019-04-14T19:00:09.870Z,94.90
2019-04-14T19:02:37.081Z,95.20
2019-04-14T19:05:04.770Z,95.50
2019-04-14T19:07:32.261Z,95.90
2019-04-14T19:09:59.691Z,95.40
2019-04-14T19:12:37.591Z,95.20
2019-04-14T19:15:24.762Z,95.10
2019-04-14T19:17:58.249Z,95.40
2019-04-14T19:20:25.659Z,95.50
2019-04-14T19:22:53.125Z,95.60
2019-04-14T19:25:20.600Z,95.70
2019-04-14T19:27:48.015Z,95.90
2019-04-14T19:30:15.327Z,96.10
2019-04-14T19:32:42.790Z,96.00
2019-04-14T19:35:10.211Z,96.20
2019-04-14T19:37:38.173Z,96.50
2019-04-14T19:40:05.971Z,96.60
2019-04-14T19:42:33.403Z,96.90
2019-04-14T19:45:01.152Z,96.90
2019-04-14T19:47:28.607Z,96.90
2019-04-14T19:49:55.987Z,96.70
2019-04-14T19:52:23.710Z,96.90
2019-04-14T19:54:50.900Z,97.40
2019-04-14T19:57:18.063Z,97.50
2019-04-14T19:59:45.259Z,97.70
2019-04-14T20:02:13.131Z,98.20
2019-04-14T20:04:40.322Z,99.00
2019-04-14T20:07:07.764Z,99.30
2019-04-14T20:09:35.153Z,99.90
2019-04-14T20:12:02.709Z,99.50
2019-04-14T20:14:30.431Z,99.90
2019-04-14T20:17:18.635Z,99.90
2019-04-14T20:20:02.384Z,99.90
2019-04-14T20:22:52.280Z,99.90
2019-04-14T20:25:37.412Z,99.90
2019-04-14T20:28:39.494Z,99.90
2019-04-14T20:31:25.334Z,99.90
2019-04-14T20:33:52.877Z,99.90
2019-04-14T20:36:20.482Z,99.90
2019-04-14T20:38:47.807Z,99.90
2019-04-14T20:41:15.029Z,99.90
2019-04-14T20:43:42.522Z,99.90
2019-04-14T20:46:10.047Z,99.90
2019-04-14T20:48:37.446Z,99.90
2019-04-14T20:51:04.999Z,99.90
2019-04-14T20:53:32.508Z,99.90
2019-04-14T20:56:00.855Z,99.90
2019-04-14T20:58:28.304Z,99.90
2019-04-14T21:00:55.519Z,99.90
2019-04-14T21:03:42.863Z,99.90
2019-04-14T21:06:35.951Z,99.90
2019-04-14T21:09:17.067Z,99.90
2019-04-14T21:11:53.651Z,99.90
2019-04-14T21:14:28.794Z,99.90
2019-04-14T21:17:01.307Z,99.90
2019-04-14T21:19:43.505Z,99.90
2019-04-14T21:22:32.446Z,99.90
2019-04-14T21:25:20.939Z,99.90
2019-04-14T21:28:08.035Z,99.90
2019-04-14T21:30:46.654Z,99.90
2019-04-14T21:33:33.747Z,99.90
2019-04-14T21:36:22.919Z,99.90
2019-04-14T21:39:10.682Z,99.90
2019-04-14T21:41:38.116Z,99.90
2019-04-14T21:44:05.858Z,99.90
2019-04-14T21:46:33.336Z,99.90
2019-04-14T21:49:00.942Z,99.90
2019-04-14T21:51:53.692Z,99.90
2019-04-14T21:54:21.058Z,99.90
2019-04-14T21:56:58.938Z,99.90
2019-04-14T21:59:28.884Z,99.90
2019-04-14T22:02:15.739Z,99.90
2019-04-14T22:05:02.598Z,99.90
2019-04-14T22:07:47.554Z,99.90
2019-04-14T22:10:33.131Z,99.90
2019-04-14T22:13:00.570Z,99.90
2019-04-14T22:15:28.345Z,99.90
2019-04-14T22:17:56.066Z,99.90
2019-04-14T22:20:23.758Z,99.90
2019-04-14T22:22:51.294Z,99.90
2019-04-14T22:25:18.976Z,99.90
2019-04-14T22:27:46.443Z,99.90
2019-04-14T22:30:13.811Z,99.90
2019-04-14T22:32:41.498Z,99.90
2019-04-14T22:35:09.219Z,99.90
2019-04-14T22:37:36.963Z,99.90
2019-04-14T22:40:04.837Z,99.90
2019-04-14T22:42:32.271Z,99.90
2019-04-14T22:44:59.719Z,99.90
2019-04-14T22:47:27.191Z,99.90
2019-04-14T22:49:54.686Z,99.90
2019-04-14T22:52:21.882Z,99.90
2019-04-14T22:54:49.361Z,99.90
2019-04-14T22:57:16.835Z,99.90
2019-04-14T22:59:44.559Z,99.90
2019-04-14T23:02:20.419Z,99.90
2019-04-14T23:05:10.571Z,99.90
2019-04-14T23:07:55.499Z,99.90
2019-04-14T23:10:42.235Z,99.90
2019-04-14T23:13:15.243Z,99.90
2019-04-14T23:15:51.622Z,99.90
2019-04-14T23:18:25.850Z,99.90
2019-04-14T23:21:05.074Z,99.90
2019-04-14T23:23:41.887Z,99.90
2019-04-14T23:26:09.955Z,99.90
2019-04-14T23:28:37.360Z,99.90
2019-04-14T23:31:04.726Z,99.90
2019-04-14T23:33:32.723Z,99.90
2019-04-14T23:36:00.400Z,99.90
2019-04-14T23:38:27.897Z,99.90
2019-04-14T23:40:55.068Z,99.90
2019-04-14T23:43:22.415Z,99.90
2019-04-14T23:45:49.945Z,99.90
2019-04-14T23:48:17.878Z,99.90
2019-04-14T23:50:45.096Z,99.90
2019-04-14T23:53:12.559Z,99.90
2019-04-14T23:55:40.260Z,99.90
2019-04-14T23:58:07.706Z,99.90
